Time;durP1;ratioP1;P1;durP2;ratioP2;P2;SDS_P1;SDS_P2;PMS_P1;PMS_P2;Temp;Humidity;BMP_temperature;BMP_pressure;BME280_temperature;BME280_humidity;BME280_pressure;Samples;Min_cycle;Max_cycle;Signal;HPM_P1;HPM_P2
2021/06/03 00:02:05;;;;;;;9.87;5.40;;;;;;;;;;4419253;32;20244;-75
2021/06/03 00:04:30;;;;;;;8.25;5.35;;;;;;;;;;4418735;32;20225;-77
2021/06/03 00:06:55;;;;;;;8.80;5.00;;;;;;;;;;4419559;32;20278;-77
2021/06/03 00:09:20;;;;;;;7.57;4.82;;;;;;;;;;4418925;32;20309;-76
2021/06/03 00:11:46;;;;;;;5.68;4.18;;;;;;;;;;4418484;32;20204;-76
2021/06/03 00:14:11;;;;;;;9.73;4.72;;;;;;;;;;4420333;32;20589;-75
2021/06/03 00:16:36;;;;;;;5.72;4.25;;;;;;;;;;4418056;32;20135;-76
2021/06/03 00:19:06;;;;;;;8.00;4.85;;;;;;;;;;4420032;32;20152;-75
2021/06/03 00:21:31;;;;;;;5.78;4.45;;;;;;;;;;4419960;32;20171;-76
2021/06/03 00:23:57;;;;;;;6.07;4.12;;;;;;;;;;4405422;32;20153;-76
2021/06/03 00:26:22;;;;;;;7.53;4.78;;;;;;;;;;4404671;32;20159;-76
2021/06/03 00:28:47;;;;;;;7.40;4.80;;;;;;;;;;4418782;32;20137;-76
2021/06/03 00:31:13;;;;;;;6.65;5.10;;;;;;;;;;4418539;32;20134;-76
2021/06/03 00:33:38;;;;;;;6.65;4.85;;;;;;;;;;4427601;32;20153;-77
2021/06/03 00:36:03;;;;;;;6.78;4.32;;;;;;;;;;4434653;32;20153;-77
2021/06/03 00:38:28;;;;;;;6.43;4.37;;;;;;;;;;4434410;32;20137;-76
2021/06/03 00:40:54;;;;;;;6.10;3.90;;;;;;;;;;4434968;32;20125;-77
2021/06/03 00:43:19;;;;;;;6.22;4.53;;;;;;;;;;4433348;32;20228;-76
2021/06/03 00:45:44;;;;;;;5.90;4.40;;;;;;;;;;4419487;32;20292;-77
2021/06/03 00:48:09;;;;;;;8.05;4.93;;;;;;;;;;4435584;32;20175;-77
2021/06/03 00:50:39;;;;;;;9.00;4.30;;;;;;;;;;4434411;32;20125;-77
2021/06/03 00:53:05;;;;;;;6.15;4.43;;;;;;;;;;4421425;32;20161;-76
2021/06/03 00:55:31;;;;;;;9.30;5.00;;;;;;;;;;4434303;32;20172;-77
2021/06/03 00:57:57;;;;;;;6.62;4.62;;;;;;;;;;4436442;32;20176;-77
2021/06/03 01:00:22;;;;;;;4.37;3.97;;;;;;;;;;4434766;32;20125;-77
2021/06/03 01:02:47;;;;;;;6.07;4.62;;;;;;;;;;4436181;32;20200;-77
2021/06/03 01:05:23;;;;;;;6.22;4.12;;;;;;;;;;4420526;32;20153;-77
2021/06/03 01:07:49;;;;;;;8.38;4.32;;;;;;;;;;4435605;32;20237;-78
2021/06/03 01:10:21;;;;;;;4.82;3.95;;;;;;;;;;4435730;32;20180;-78
2021/06/03 01:12:56;;;;;;;5.78;4.03;;;;;;;;;;4435943;32;20188;-77
2021/06/03 01:15:22;;;;;;;4.43;3.90;;;;;;;;;;4435249;32;20283;-77
2021/06/03 01:17:47;;;;;;;5.30;3.83;;;;;;;;;;4420207;32;20204;-77
2021/06/03 01:20:13;;;;;;;9.27;3.97;;;;;;;;;;4433714;32;20191;-77
2021/06/03 01:22:53;;;;;;;7.87;4.50;;;;;;;;;;4419572;32;20207;-77
2021/06/03 01:25:19;;;;;;;6.75;4.50;;;;;;;;;;4431565;32;20184;-78
2021/06/03 01:27:45;;;;;;;4.47;3.80;;;;;;;;;;4418629;32;20149;-77
2021/06/03 01:30:10;;;;;;;6.97;4.43;;;;;;;;;;4423012;32;20316;-77
2021/06/03 01:32:37;;;;;;;7.43;4.60;;;;;;;;;;4433595;32;20233;-77
2021/06/03 01:35:03;;;;;;;8.35;4.72;;;;;;;;;;4419506;32;20165;-78
2021/06/03 01:37:28;;;;;;;10.02;4.07;;;;;;;;;;4404647;32;20174;-76
2021/06/03 01:39:54;;;;;;;7.53;4.70;;;;;;;;;;4404009;32;20245;-78
2021/06/03 01:42:19;;;;;;;7.60;5.15;;;;;;;;;;4410774;32;20567;-77
2021/06/03 01:44:45;;;;;;;8.15;6.07;;;;;;;;;;4433672;32;20254;-77
2021/06/03 01:47:11;;;;;;;9.07;6.10;;;;;;;;;;4427880;32;20173;-77
2021/06/03 01:49:37;;;;;;;9.27;6.62;;;;;;;;;;4418814;32;20157;-78
2021/06/03 01:52:03;;;;;;;9.98;7.25;;;;;;;;;;4405297;32;20162;-77
2021/06/03 01:54:29;;;;;;;10.43;7.97;;;;;;;;;;4418839;32;20190;-77
2021/06/03 01:56:54;;;;;;;7.93;7.12;;;;;;;;;;4418489;32;20142;-77
2021/06/03 01:59:19;;;;;;;9.65;7.47;;;;;;;;;;4406732;32;20233;-77
2021/06/03 02:01:45;;;;;;;13.48;8.00;;;;;;;;;;4418182;32;20543;-78
2021/06/03 02:04:13;;;;;;;11.15;7.82;;;;;;;;;;4418328;32;20240;-77
2021/06/03 02:06:38;;;;;;;11.05;8.35;;;;;;;;;;4420213;32;20200;-77
2021/06/03 02:09:04;;;;;;;11.43;8.07;;;;;;;;;;4419312;32;20138;-76
2021/06/03 02:11:30;;;;;;;9.60;8.32;;;;;;;;;;4403602;32;20617;-77
2021/06/03 02:13:57;;;;;;;11.57;8.27;;;;;;;;;;4421430;32;20126;-76
2021/06/03 02:16:22;;;;;;;11.30;9.05;;;;;;;;;;4435561;32;20248;-76
2021/06/03 02:18:50;;;;;;;13.07;8.73;;;;;;;;;;4423591;32;20173;-76
2021/06/03 02:21:16;;;;;;;11.25;8.35;;;;;;;;;;4436727;32;20198;-75
2021/06/03 02:23:42;;;;;;;9.35;6.97;;;;;;;;;;4435745;32;20172;-76
2021/06/03 02:26:07;;;;;;;11.30;6.03;;;;;;;;;;4438603;32;20146;-77
2021/06/03 02:28:33;;;;;;;11.63;6.40;;;;;;;;;;4436872;32;20137;-77
2021/06/03 02:30:58;;;;;;;5.53;5.00;;;;;;;;;;4436963;32;20137;-78
2021/06/03 02:33:24;;;;;;;8.43;5.55;;;;;;;;;;4422501;32;20193;-75
2021/06/03 02:35:49;;;;;;;6.43;5.10;;;;;;;;;;4421293;32;20165;-76
2021/06/03 02:38:19;;;;;;;7.25;5.80;;;;;;;;;;4436315;32;20129;-76
2021/06/03 02:40:45;;;;;;;7.57;5.12;;;;;;;;;;4438059;32;20134;-77
2021/06/03 02:43:10;;;;;;;10.20;5.85;;;;;;;;;;4436084;32;20595;-77
2021/06/03 02:45:35;;;;;;;7.43;5.35;;;;;;;;;;4435991;32;20183;-76
2021/06/03 02:48:01;;;;;;;6.70;5.03;;;;;;;;;;4436915;32;20145;-76
2021/06/03 02:50:27;;;;;;;7.65;5.60;;;;;;;;;;4436191;32;20555;-77
2021/06/03 02:52:53;;;;;;;7.30;5.68;;;;;;;;;;4435621;32;20168;-76
2021/06/03 02:55:20;;;;;;;7.50;6.25;;;;;;;;;;4435115;32;20140;-77
2021/06/03 02:57:45;;;;;;;6.28;5.68;;;;;;;;;;4436029;32;20145;-78
2021/06/03 03:00:13;;;;;;;9.45;6.55;;;;;;;;;;4437511;32;20628;-76
2021/06/03 03:02:38;;;;;;;12.63;7.10;;;;;;;;;;4435827;32;20587;-77
2021/06/03 03:05:04;;;;;;;9.68;6.25;;;;;;;;;;4436196;32;20125;-76
2021/06/03 03:07:32;;;;;;;10.52;7.10;;;;;;;;;;4436024;32;20212;-77
2021/06/03 03:09:57;;;;;;;10.32;6.82;;;;;;;;;;4437020;32;20218;-77
2021/06/03 03:12:22;;;;;;;7.50;6.80;;;;;;;;;;4436328;32;20277;-77
2021/06/03 03:14:47;;;;;;;10.40;7.40;;;;;;;;;;4436767;32;20125;-77
2021/06/03 03:17:12;;;;;;;9.38;6.50;;;;;;;;;;4422968;32;20277;-77
2021/06/03 03:19:37;;;;;;;8.68;7.37;;;;;;;;;;4422258;32;20218;-76
2021/06/03 03:22:03;;;;;;;9.05;7.12;;;;;;;;;;4436004;32;20229;-76
2021/06/03 03:24:28;;;;;;;7.50;6.75;;;;;;;;;;4420845;32;20218;-77
2021/06/03 03:26:54;;;;;;;9.82;7.00;;;;;;;;;;4409179;32;20181;-77
2021/06/03 03:29:19;;;;;;;8.80;7.20;;;;;;;;;;4405356;32;20225;-77
2021/06/03 03:31:44;;;;;;;10.63;8.05;;;;;;;;;;4419138;32;20471;-77
2021/06/03 03:34:09;;;;;;;8.90;7.10;;;;;;;;;;4419987;32;20516;-77
2021/06/03 03:36:35;;;;;;;9.57;8.53;;;;;;;;;;4421159;32;20184;-77
2021/06/03 03:39:00;;;;;;;15.20;10.65;;;;;;;;;;4418781;32;20233;-77
2021/06/03 03:41:26;;;;;;;20.23;12.63;;;;;;;;;;4419121;32;20232;-76
2021/06/03 03:43:51;;;;;;;15.40;12.23;;;;;;;;;;4421236;32;20153;-76
2021/06/03 03:46:17;;;;;;;14.43;12.82;;;;;;;;;;4420229;32;20196;-76
2021/06/03 03:48:42;;;;;;;14.13;12.57;;;;;;;;;;4419508;32;20257;-77
2021/06/03 03:51:09;;;;;;;14.48;12.98;;;;;;;;;;4420506;32;20129;-76
2021/06/03 03:53:34;;;;;;;15.93;13.27;;;;;;;;;;4405949;32;20208;-78
2021/06/03 03:55:59;;;;;;;17.05;13.27;;;;;;;;;;4421533;32;20535;-77
2021/06/03 03:58:24;;;;;;;16.92;12.52;;;;;;;;;;4421502;32;20142;-77
2021/06/03 04:00:50;;;;;;;17.10;12.30;;;;;;;;;;4422120;32;20228;-77
2021/06/03 04:03:15;;;;;;;12.30;11.00;;;;;;;;;;4406499;32;20161;-76
2021/06/03 04:05:40;;;;;;;16.12;12.50;;;;;;;;;;4406827;32;20582;-77
2021/06/03 04:08:05;;;;;;;13.18;10.70;;;;;;;;;;4405363;32;20192;-77
2021/06/03 04:10:30;;;;;;;11.80;10.27;;;;;;;;;;4405634;32;20157;-78
2021/06/03 04:12:56;;;;;;;13.10;11.07;;;;;;;;;;4420251;32;20189;-78
2021/06/03 04:15:21;;;;;;;13.50;10.68;;;;;;;;;;4421994;32;20540;-75
2021/06/03 04:17:46;;;;;;;11.43;10.23;;;;;;;;;;4407026;32;20194;-75
2021/06/03 04:20:14;;;;;;;13.88;10.13;;;;;;;;;;4419138;32;20160;-76
2021/06/03 04:22:39;;;;;;;12.77;9.63;;;;;;;;;;4420985;32;20156;-75
2021/06/03 04:25:05;;;;;;;10.45;9.35;;;;;;;;;;4418916;32;20141;-75
2021/06/03 04:27:31;;;;;;;12.15;10.27;;;;;;;;;;4419304;32;20181;-75
2021/06/03 04:29:56;;;;;;;11.68;9.73;;;;;;;;;;4419354;32;20284;-76
2021/06/03 04:32:21;;;;;;;13.90;10.85;;;;;;;;;;4420617;32;20612;-76
2021/06/03 04:34:46;;;;;;;12.35;10.05;;;;;;;;;;4420934;32;20444;-76
2021/06/03 04:37:11;;;;;;;12.53;9.93;;;;;;;;;;4419027;32;20130;-76
2021/06/03 04:39:37;;;;;;;14.68;11.07;;;;;;;;;;4418941;32;20264;-76
2021/06/03 04:42:03;;;;;;;12.68;10.60;;;;;;;;;;4430718;32;20543;-76
2021/06/03 04:44:28;;;;;;;12.65;10.35;;;;;;;;;;4433825;32;20217;-76
2021/06/03 04:46:53;;;;;;;12.80;10.10;;;;;;;;;;4435992;32;20134;-76
2021/06/03 04:49:19;;;;;;;10.85;9.68;;;;;;;;;;4433940;32;20225;-76
2021/06/03 04:51:44;;;;;;;10.55;9.43;;;;;;;;;;4433677;32;20279;-76
2021/06/03 04:54:09;;;;;;;10.98;9.68;;;;;;;;;;4435775;32;20264;-76
2021/06/03 04:56:35;;;;;;;12.05;10.52;;;;;;;;;;4434077;32;20183;-75
2021/06/03 04:59:00;;;;;;;13.40;10.85;;;;;;;;;;4434080;32;20129;-76
2021/06/03 05:01:26;;;;;;;11.10;8.68;;;;;;;;;;4434270;32;20574;-76
2021/06/03 05:03:51;;;;;;;11.43;9.10;;;;;;;;;;4433417;32;20488;-76
2021/06/03 05:06:17;;;;;;;11.47;8.97;;;;;;;;;;4433648;32;20161;-75
2021/06/03 05:08:42;;;;;;;12.60;8.90;;;;;;;;;;4433333;32;20259;-76
2021/06/03 05:11:07;;;;;;;11.55;9.93;;;;;;;;;;4434481;32;20142;-76
2021/06/03 05:13:32;;;;;;;13.83;10.10;;;;;;;;;;4410379;32;20177;-75
2021/06/03 05:16:00;;;;;;;13.30;10.93;;;;;;;;;;4417774;32;20316;-76
2021/06/03 05:18:26;;;;;;;12.70;10.07;;;;;;;;;;4419000;32;20624;-75
2021/06/03 05:20:51;;;;;;;12.07;10.23;;;;;;;;;;4420386;32;20161;-76
2021/06/03 05:23:16;;;;;;;11.80;9.70;;;;;;;;;;4434602;32;20187;-76
2021/06/03 05:25:44;;;;;;;13.32;10.48;;;;;;;;;;4433350;32;20226;-78
2021/06/03 05:28:09;;;;;;;13.25;10.65;;;;;;;;;;4433606;32;20149;-76
2021/06/03 05:30:34;;;;;;;18.02;10.82;;;;;;;;;;4426084;32;20229;-76
2021/06/03 05:32:59;;;;;;;14.20;10.73;;;;;;;;;;4417691;32;20555;-76
2021/06/03 05:35:25;;;;;;;12.65;10.15;;;;;;;;;;4417955;32;20133;-76
2021/06/03 05:37:51;;;;;;;12.37;10.40;;;;;;;;;;4404582;32;20184;-78
2021/06/03 05:40:18;;;;;;;13.32;9.82;;;;;;;;;;4418095;32;20196;-75
2021/06/03 05:42:43;;;;;;;14.57;11.02;;;;;;;;;;4419700;32;20579;-75
2021/06/03 05:45:09;;;;;;;17.67;12.70;;;;;;;;;;4420219;32;20138;-76
2021/06/03 05:47:37;;;;;;;12.32;10.77;;;;;;;;;;4420107;32;20240;-76
2021/06/03 05:50:03;;;;;;;15.75;12.13;;;;;;;;;;4422762;32;20129;-76
2021/06/03 05:52:28;;;;;;;15.70;11.77;;;;;;;;;;4423124;32;20162;-76
2021/06/03 05:54:54;;;;;;;14.00;11.27;;;;;;;;;;4430663;32;20149;-76
2021/06/03 05:57:19;;;;;;;15.93;11.82;;;;;;;;;;4436398;32;20129;-77
2021/06/03 05:59:44;;;;;;;15.90;12.82;;;;;;;;;;4434562;32;20137;-75
2021/06/03 06:02:13;;;;;;;14.45;12.48;;;;;;;;;;4420812;32;20446;-74
2021/06/03 06:07:23;;;;;;;17.25;12.63;;;;;;;;;;4396568;32;20597;-74
2021/06/03 06:09:49;;;;;;;20.40;12.73;;;;;;;;;;4422253;32;20211;-74
2021/06/03 06:12:14;;;;;;;18.37;11.97;;;;;;;;;;4420194;32;20150;-73
2021/06/03 06:14:39;;;;;;;15.25;11.73;;;;;;;;;;4420819;32;20260;-73
2021/06/03 06:17:04;;;;;;;16.83;12.13;;;;;;;;;;4406645;32;20203;-72
2021/06/03 06:19:31;;;;;;;13.70;11.07;;;;;;;;;;4421901;32;20528;-73
2021/06/03 06:21:56;;;;;;;13.32;10.65;;;;;;;;;;4422140;32;20141;-73
2021/06/03 06:24:21;;;;;;;13.68;11.27;;;;;;;;;;4419879;32;20130;-73
2021/06/03 06:26:46;;;;;;;12.95;11.18;;;;;;;;;;4419716;32;20267;-72
2021/06/03 06:29:12;;;;;;;12.27;10.60;;;;;;;;;;4422179;32;20167;-73
2021/06/03 06:31:37;;;;;;;14.43;11.00;;;;;;;;;;4422659;32;20149;-75
2021/06/03 06:34:02;;;;;;;15.27;11.55;;;;;;;;;;4405168;32;20181;-73
2021/06/03 06:36:27;;;;;;;13.05;11.30;;;;;;;;;;4420909;32;20237;-72
2021/06/03 06:38:52;;;;;;;16.98;11.43;;;;;;;;;;4421067;32;20523;-73
2021/06/03 06:41:18;;;;;;;16.45;11.40;;;;;;;;;;4405525;32;20204;-73
2021/06/03 06:43:43;;;;;;;17.80;12.00;;;;;;;;;;4419373;32;20496;-73
2021/06/03 06:46:08;;;;;;;17.58;12.40;;;;;;;;;;4406426;32;20165;-73
2021/06/03 06:48:33;;;;;;;15.18;12.20;;;;;;;;;;4423028;32;20163;-72
2021/06/03 06:50:59;;;;;;;14.70;11.37;;;;;;;;;;4421766;32;20161;-73
2021/06/03 06:53:26;;;;;;;15.60;11.20;;;;;;;;;;4436558;32;20234;-72
2021/06/03 06:55:51;;;;;;;15.27;11.63;;;;;;;;;;4432852;32;20196;-72
2021/06/03 06:58:16;;;;;;;16.00;11.48;;;;;;;;;;4433239;32;20189;-72
2021/06/03 07:00:42;;;;;;;18.08;11.82;;;;;;;;;;4434072;32;20137;-73
2021/06/03 07:03:09;;;;;;;15.30;11.65;;;;;;;;;;4435491;32;20130;-72
2021/06/03 07:05:36;;;;;;;16.85;11.18;;;;;;;;;;4416793;32;20179;-74
2021/06/03 07:08:01;;;;;;;15.20;11.27;;;;;;;;;;4420452;32;20141;-73
2021/06/03 07:10:26;;;;;;;15.35;10.68;;;;;;;;;;4421398;32;20437;-73
2021/06/03 07:12:52;;;;;;;18.48;11.85;;;;;;;;;;4407018;32;20158;-72
2021/06/03 07:15:17;;;;;;;14.85;11.77;;;;;;;;;;4428647;32;20144;-73
2021/06/03 07:17:42;;;;;;;13.90;11.65;;;;;;;;;;4434608;32;20154;-73
2021/06/03 07:20:10;;;;;;;14.23;11.50;;;;;;;;;;4435738;32;20156;-73
2021/06/03 07:22:36;;;;;;;16.60;11.60;;;;;;;;;;4435167;32;20401;-73
2021/06/03 07:25:01;;;;;;;15.77;11.93;;;;;;;;;;4420339;32;20187;-73
2021/06/03 07:27:26;;;;;;;15.90;12.37;;;;;;;;;;4422074;32;20659;-72
2021/06/03 07:29:57;;;;;;;16.90;11.55;;;;;;;;;;4422645;32;20222;-73
2021/06/03 07:32:22;;;;;;;15.25;11.12;;;;;;;;;;4414247;32;20178;-73
2021/06/03 07:34:47;;;;;;;15.25;11.55;;;;;;;;;;4425916;32;20526;-72
2021/06/03 07:37:13;;;;;;;15.68;11.75;;;;;;;;;;4436000;32;20157;-72
2021/06/03 07:39:38;;;;;;;16.90;11.27;;;;;;;;;;4436183;32;20221;-72
2021/06/03 07:42:03;;;;;;;14.25;10.55;;;;;;;;;;4434160;32;20251;-73
2021/06/03 07:44:28;;;;;;;15.30;10.93;;;;;;;;;;4434239;32;20134;-73
2021/06/03 07:46:54;;;;;;;15.35;11.27;;;;;;;;;;4420262;32;20288;-73
2021/06/03 07:49:19;;;;;;;13.00;11.52;;;;;;;;;;4433385;32;20133;-73
2021/06/03 07:51:44;;;;;;;12.70;9.88;;;;;;;;;;4424041;32;20200;-73
2021/06/03 07:54:10;;;;;;;12.07;9.57;;;;;;;;;;4422345;32;20225;-73
2021/06/03 07:56:35;;;;;;;16.08;10.27;;;;;;;;;;4433606;32;20152;-73
2021/06/03 07:59:00;;;;;;;15.95;9.60;;;;;;;;;;4407617;32;20169;-72
2021/06/03 08:01:26;;;;;;;13.77;10.25;;;;;;;;;;4428116;32;20458;-74
2021/06/03 08:03:51;;;;;;;12.85;9.43;;;;;;;;;;4421345;32;20187;-73
2021/06/03 08:06:16;;;;;;;10.82;9.13;;;;;;;;;;4406467;32;20200;-72
2021/06/03 08:08:41;;;;;;;13.70;9.70;;;;;;;;;;4421808;32;20188;-73
2021/06/03 08:11:07;;;;;;;12.02;8.95;;;;;;;;;;4417435;32;20161;-72
2021/06/03 08:13:32;;;;;;;13.35;9.70;;;;;;;;;;4422129;32;20331;-72
2021/06/03 08:15:57;;;;;;;11.77;9.02;;;;;;;;;;4431411;32;20172;-72
2021/06/03 08:18:23;;;;;;;13.03;9.87;;;;;;;;;;4417688;32;20295;-72
2021/06/03 08:20:50;;;;;;;12.73;9.35;;;;;;;;;;4420178;32;20493;-72
2021/06/03 08:23:16;;;;;;;12.93;10.10;;;;;;;;;;4421996;32;20145;-72
2021/06/03 08:25:41;;;;;;;12.37;9.50;;;;;;;;;;4406043;32;20166;-72
2021/06/03 08:28:07;;;;;;;14.30;9.57;;;;;;;;;;4434546;32;20433;-72
2021/06/03 08:30:34;;;;;;;14.15;9.95;;;;;;;;;;4434093;32;20130;-72
2021/06/03 08:32:59;;;;;;;12.73;9.45;;;;;;;;;;4417106;32;20551;-72
2021/06/03 08:35:24;;;;;;;12.18;9.52;;;;;;;;;;4418518;32;20179;-72
2021/06/03 08:37:51;;;;;;;13.82;9.98;;;;;;;;;;4418847;32;20238;-71
2021/06/03 08:40:18;;;;;;;12.80;9.30;;;;;;;;;;4416753;32;20290;-72
2021/06/03 08:42:43;;;;;;;15.10;11.02;;;;;;;;;;4419092;32;20226;-72
2021/06/03 08:45:12;;;;;;;13.02;9.50;;;;;;;;;;4419281;32;20237;-71
2021/06/03 08:47:37;;;;;;;14.13;10.60;;;;;;;;;;4404587;32;20189;-71
2021/06/03 08:50:03;;;;;;;12.98;9.27;;;;;;;;;;4419007;32;20572;-72
2021/06/03 08:52:28;;;;;;;13.50;10.25;;;;;;;;;;4404098;32;20192;-73
2021/06/03 08:54:55;;;;;;;12.60;10.07;;;;;;;;;;4419999;32;20458;-73
2021/06/03 08:57:21;;;;;;;13.50;10.57;;;;;;;;;;4430424;32;20522;-72
2021/06/03 08:59:46;;;;;;;13.90;10.65;;;;;;;;;;4433183;32;20156;-72
2021/06/03 09:02:11;;;;;;;15.57;11.82;;;;;;;;;;4419060;32;20161;-73
2021/06/03 09:04:36;;;;;;;15.83;11.83;;;;;;;;;;4404270;32;20208;-73
2021/06/03 09:07:01;;;;;;;14.80;12.00;;;;;;;;;;4418444;32;20252;-73
2021/06/03 09:09:28;;;;;;;15.77;11.55;;;;;;;;;;4403946;32;20292;-71
2021/06/03 09:12:10;;;;;;;14.98;11.73;;;;;;;;;;4416852;32;20564;-71
2021/06/03 09:14:35;;;;;;;17.62;11.65;;;;;;;;;;4417361;32;20130;-72
2021/06/03 09:17:00;;;;;;;14.57;11.93;;;;;;;;;;4416555;32;20247;-71
2021/06/03 09:19:25;;;;;;;16.07;11.53;;;;;;;;;;4417853;32;20459;-72
2021/06/03 09:21:51;;;;;;;15.05;10.18;;;;;;;;;;4418092;32;20387;-71
2021/06/03 09:24:17;;;;;;;13.80;10.23;;;;;;;;;;4418208;32;20163;-71
2021/06/03 09:26:49;;;;;;;13.80;10.23;;;;;;;;;;4429977;32;20252;-72
2021/06/03 09:29:24;;;;;;;13.32;9.93;;;;;;;;;;4403767;32;20204;-72
2021/06/03 09:31:50;;;;;;;13.07;9.70;;;;;;;;;;4421555;32;20196;-73
2021/06/03 09:34:20;;;;;;;11.80;9.00;;;;;;;;;;4418627;32;20206;-73
2021/06/03 09:36:49;;;;;;;14.25;10.25;;;;;;;;;;4422823;32;20153;-71
2021/06/03 09:39:19;;;;;;;15.30;9.52;;;;;;;;;;4421280;32;20240;-71
2021/06/03 09:41:45;;;;;;;14.70;10.30;;;;;;;;;;4421579;32;20183;-72
2021/06/03 09:44:11;;;;;;;15.70;11.10;;;;;;;;;;4434324;32;20265;-71
2021/06/03 09:46:37;;;;;;;12.90;10.20;;;;;;;;;;4419270;32;20203;-72
2021/06/03 09:49:03;;;;;;;14.10;10.88;;;;;;;;;;4418704;32;20293;-71
2021/06/03 09:51:31;;;;;;;14.93;12.00;;;;;;;;;;4422321;32;20137;-71
2021/06/03 09:53:58;;;;;;;14.18;11.18;;;;;;;;;;4434840;32;20161;-71
2021/06/03 09:56:27;;;;;;;17.73;11.73;;;;;;;;;;4426815;32;20208;-71
2021/06/03 09:58:53;;;;;;;16.92;11.88;;;;;;;;;;4420186;32;20584;-71
2021/06/03 10:01:36;;;;;;;17.02;12.60;;;;;;;;;;4420362;32;20142;-71
2021/06/03 10:04:02;;;;;;;15.45;10.77;;;;;;;;;;4417508;32;20130;-71
2021/06/03 10:06:27;;;;;;;14.23;11.07;;;;;;;;;;4418766;32;20191;-71
2021/06/03 10:08:53;;;;;;;13.95;11.18;;;;;;;;;;4425538;32;20169;-71
2021/06/03 10:11:50;;;;;;;14.48;10.10;;;;;;;;;;4419494;32;20181;-72
2021/06/03 10:14:20;;;;;;;15.73;12.85;;;;;;;;;;4374244;32;20154;-71
2021/06/03 10:16:46;;;;;;;17.45;12.30;;;;;;;;;;4419422;32;20547;-71
2021/06/03 10:19:18;;;;;;;15.57;13.10;;;;;;;;;;4426926;32;20194;-71
2021/06/03 10:21:44;;;;;;;12.75;10.23;;;;;;;;;;4424641;32;20229;-72
2021/06/03 10:24:09;;;;;;;18.77;12.50;;;;;;;;;;4416593;32;20525;-72
2021/06/03 10:26:54;;;;;;;14.50;11.38;;;;;;;;;;4417849;32;20170;-72
2021/06/03 10:29:19;;;;;;;15.05;10.93;;;;;;;;;;4416981;32;20154;-71
2021/06/03 10:31:44;;;;;;;16.27;11.77;;;;;;;;;;4424802;32;20594;-72
2021/06/03 10:34:10;;;;;;;16.08;11.93;;;;;;;;;;4434313;32;20311;-72
2021/06/03 10:36:36;;;;;;;14.15;11.18;;;;;;;;;;4436884;32;20137;-72
2021/06/03 10:39:01;;;;;;;15.50;12.35;;;;;;;;;;4434800;32;20453;-72
2021/06/03 10:41:26;;;;;;;14.70;12.45;;;;;;;;;;4437021;32;20240;-73
2021/06/03 10:43:53;;;;;;;18.30;14.33;;;;;;;;;;4435591;32;20542;-72
2021/06/03 10:46:18;;;;;;;17.83;12.73;;;;;;;;;;4424298;32;20237;-71
2021/06/03 10:48:43;;;;;;;16.45;12.88;;;;;;;;;;4421578;32;20201;-72
2021/06/03 10:51:09;;;;;;;16.77;13.83;;;;;;;;;;4420852;32;20171;-72
2021/06/03 10:53:41;;;;;;;18.33;15.52;;;;;;;;;;4420363;32;20226;-73
2021/06/03 10:56:06;;;;;;;16.23;13.05;;;;;;;;;;4421505;32;20160;-72
2021/06/03 10:58:33;;;;;;;16.40;14.48;;;;;;;;;;4421132;32;20134;-73
2021/06/03 11:00:59;;;;;;;21.40;16.90;;;;;;;;;;4420128;32;20129;-72
2021/06/03 11:03:35;;;;;;;20.75;16.65;;;;;;;;;;4420070;32;20180;-72
2021/06/03 11:06:05;;;;;;;18.95;16.83;;;;;;;;;;4405133;32;20199;-72
2021/06/03 11:08:32;;;;;;;20.92;16.50;;;;;;;;;;4419270;32;20188;-72
2021/06/03 11:11:10;;;;;;;20.65;14.98;;;;;;;;;;4420830;32;20184;-72
2021/06/03 11:13:36;;;;;;;20.33;15.07;;;;;;;;;;4418938;32;20176;-72
2021/06/03 11:16:11;;;;;;;20.50;13.70;;;;;;;;;;4420496;32;20130;-73
2021/06/03 11:18:49;;;;;;;16.40;13.65;;;;;;;;;;4419629;32;20183;-73
2021/06/03 11:21:37;;;;;;;17.95;13.80;;;;;;;;;;4419404;32;20524;-72
2021/06/03 11:24:31;;;;;;;20.52;13.57;;;;;;;;;;4424183;32;20153;-72
2021/06/03 11:26:57;;;;;;;17.10;11.88;;;;;;;;;;4428497;32;20184;-73
2021/06/03 11:29:28;;;;;;;18.30;14.00;;;;;;;;;;4419635;32;20455;-73
2021/06/03 11:32:03;;;;;;;14.65;11.93;;;;;;;;;;4418562;32;20265;-73
2021/06/03 11:34:41;;;;;;;13.43;10.50;;;;;;;;;;4430851;32;20213;-72
2021/06/03 11:37:15;;;;;;;16.33;11.73;;;;;;;;;;4433209;32;20191;-72
2021/06/03 11:39:51;;;;;;;15.82;10.48;;;;;;;;;;4433593;32;20188;-72
2021/06/03 11:42:16;;;;;;;15.30;9.90;;;;;;;;;;4434549;32;20194;-73
2021/06/03 11:45:00;;;;;;;13.88;9.45;;;;;;;;;;4419037;32;20150;-71
2021/06/03 11:47:25;;;;;;;12.60;9.73;;;;;;;;;;4435190;32;20194;-72
2021/06/03 11:49:51;;;;;;;14.05;9.40;;;;;;;;;;4419699;32;20165;-72
2021/06/03 11:52:17;;;;;;;13.88;10.30;;;;;;;;;;4433242;32;20190;-71
2021/06/03 11:54:51;;;;;;;12.80;9.63;;;;;;;;;;4435493;32;20133;-73
2021/06/03 11:57:17;;;;;;;15.50;9.93;;;;;;;;;;4420760;32;20152;-72
2021/06/03 12:00:00;;;;;;;14.32;11.20;;;;;;;;;;4435374;32;20169;-72
2021/06/03 12:02:26;;;;;;;13.32;11.85;;;;;;;;;;4433519;32;20423;-72
2021/06/03 12:07:52;;;;;;;19.55;15.40;;;;;;;;;;4419035;32;20146;-72
2021/06/03 12:10:18;;;;;;;20.00;13.48;;;;;;;;;;4419888;32;20202;-72
2021/06/03 12:12:44;;;;;;;16.37;13.05;;;;;;;;;;4418516;32;20210;-73
2021/06/03 12:15:15;;;;;;;18.17;12.60;;;;;;;;;;4419175;32;20141;-72
2021/06/03 12:17:40;;;;;;;18.62;12.90;;;;;;;;;;4417834;32;20134;-72
2021/06/03 12:20:05;;;;;;;18.40;12.25;;;;;;;;;;4404959;32;20220;-72
2021/06/03 12:22:31;;;;;;;14.65;11.27;;;;;;;;;;4420522;32;20193;-72
2021/06/03 12:24:58;;;;;;;14.87;11.98;;;;;;;;;;4420224;32;20205;-72
2021/06/03 12:27:25;;;;;;;16.27;12.10;;;;;;;;;;4405660;32;20158;-72
2021/06/03 12:29:51;;;;;;;15.65;12.05;;;;;;;;;;4419902;32;20494;-71
2021/06/03 12:32:17;;;;;;;20.90;12.10;;;;;;;;;;4432521;32;20166;-72
2021/06/03 12:34:42;;;;;;;15.48;12.05;;;;;;;;;;4418730;32;20202;-72
2021/06/03 12:37:19;;;;;;;16.50;10.40;;;;;;;;;;4433575;32;20161;-72
2021/06/03 12:39:45;;;;;;;14.23;10.18;;;;;;;;;;4428522;32;20146;-72
2021/06/03 12:42:10;;;;;;;16.07;13.03;;;;;;;;;;4424270;32;20217;-72
2021/06/03 12:44:35;;;;;;;15.95;11.35;;;;;;;;;;4418774;32;20225;-71
2021/06/03 12:47:06;;;;;;;17.05;12.63;;;;;;;;;;4418777;32;20168;-72
2021/06/03 12:49:31;;;;;;;16.30;13.25;;;;;;;;;;4420553;32;20158;-72
2021/06/03 12:52:04;;;;;;;19.40;13.57;;;;;;;;;;4405782;32;20192;-72
2021/06/03 12:54:31;;;;;;;15.63;12.63;;;;;;;;;;4417923;32;20130;-74
2021/06/03 12:56:58;;;;;;;15.70;12.63;;;;;;;;;;4417553;32;20285;-72
2021/06/03 12:59:24;;;;;;;16.33;13.98;;;;;;;;;;4418819;32;20134;-71
2021/06/03 13:01:54;;;;;;;19.55;13.65;;;;;;;;;;4418146;32;20135;-73
2021/06/03 13:04:19;;;;;;;18.52;12.88;;;;;;;;;;4418330;32;20149;-72
2021/06/03 13:06:47;;;;;;;18.90;15.10;;;;;;;;;;4418500;32;20175;-72
2021/06/03 13:09:13;;;;;;;19.33;14.90;;;;;;;;;;4409200;32;20586;-70
2021/06/03 13:11:39;;;;;;;23.57;16.23;;;;;;;;;;4431952;32;20152;-71
2021/06/03 13:14:12;;;;;;;22.30;15.20;;;;;;;;;;4433546;32;20269;-71
2021/06/03 13:16:37;;;;;;;21.87;16.42;;;;;;;;;;4419637;32;20197;-72
2021/06/03 13:19:08;;;;;;;19.55;15.30;;;;;;;;;;4434476;32;20164;-71
2021/06/03 13:21:33;;;;;;;19.80;14.93;;;;;;;;;;4431099;32;20214;-72
2021/06/03 13:23:58;;;;;;;19.62;14.57;;;;;;;;;;4418442;32;20494;-72
2021/06/03 13:26:24;;;;;;;22.13;16.30;;;;;;;;;;4417487;32;20530;-71
2021/06/03 13:28:49;;;;;;;18.02;13.68;;;;;;;;;;4417903;32;20316;-71
2021/06/03 13:31:18;;;;;;;16.62;12.50;;;;;;;;;;4419287;32;20134;-71
2021/06/03 13:33:43;;;;;;;15.55;11.07;;;;;;;;;;4417602;32;20550;-71
2021/06/03 13:36:11;;;;;;;15.97;13.50;;;;;;;;;;4417285;32;20130;-72
2021/06/03 13:38:44;;;;;;;15.65;12.60;;;;;;;;;;4417727;32;20258;-71
2021/06/03 13:41:09;;;;;;;15.70;11.50;;;;;;;;;;4418412;32;20138;-71
2021/06/03 13:43:34;;;;;;;17.60;12.23;;;;;;;;;;4418590;32;20180;-70
2021/06/03 13:46:05;;;;;;;20.33;13.75;;;;;;;;;;4423266;32;20164;-71
2021/06/03 13:48:31;;;;;;;21.15;13.20;;;;;;;;;;4432868;32;20149;-70
2021/06/03 13:50:56;;;;;;;18.10;11.80;;;;;;;;;;4431806;32;20277;-70
2021/06/03 13:53:26;;;;;;;16.55;11.88;;;;;;;;;;4432891;32;20149;-71
2021/06/03 13:55:59;;;;;;;15.10;11.00;;;;;;;;;;4433765;32;20221;-71
2021/06/03 13:58:30;;;;;;;15.20;10.75;;;;;;;;;;4432824;32;20213;-71
2021/06/03 14:01:04;;;;;;;16.37;10.48;;;;;;;;;;4424305;32;20199;-71
2021/06/03 14:03:35;;;;;;;13.85;9.40;;;;;;;;;;4447761;32;20529;-71
2021/06/03 14:06:01;;;;;;;12.85;9.77;;;;;;;;;;4444161;32;20164;-70
2021/06/03 14:08:30;;;;;;;13.38;8.25;;;;;;;;;;4431756;32;20160;-71
2021/06/03 14:11:00;;;;;;;12.65;9.45;;;;;;;;;;4421021;32;20168;-71
2021/06/03 14:13:26;;;;;;;12.43;8.98;;;;;;;;;;4422543;32;20166;-71
2021/06/03 14:15:51;;;;;;;13.65;9.32;;;;;;;;;;4422074;32;20161;-71
2021/06/03 14:18:16;;;;;;;13.32;8.95;;;;;;;;;;4419823;32;20173;-71
2021/06/03 14:20:42;;;;;;;11.57;8.10;;;;;;;;;;4419200;32;20188;-71
2021/06/03 14:23:07;;;;;;;11.12;7.87;;;;;;;;;;4405971;32;20310;-71
2021/06/03 14:25:38;;;;;;;10.95;7.68;;;;;;;;;;4422728;32;20134;-71
2021/06/03 14:28:11;;;;;;;10.45;7.82;;;;;;;;;;4421826;32;20179;-72
2021/06/03 14:30:37;;;;;;;13.27;8.35;;;;;;;;;;4422048;32;20495;-71